sensor_id;sensor_type;location;lat;lon;timestamp;temperature;humidity
20158;DHT22;10239;56.820;24.416;2022-09-03T00:01:47;8.40;99.90
20158;DHT22;10239;56.820;24.416;2022-09-03T00:07:21;8.20;99.90
20158;DHT22;10239;56.820;24.416;2022-09-03T00:09:59;8.20;99.90
20158;DHT22;10239;56.820;24.416;2022-09-03T00:12:35;8.30;99.90
20158;DHT22;10239;56.820;24.416;2022-09-03T00:15:07;8.30;99.90
20158;DHT22;10239;56.820;24.416;2022-09-03T00:17:52;8.30;99.90
20158;DHT22;10239;56.820;24.416;2022-09-03T00:20:33;8.30;99.90
20158;DHT22;10239;56.820;24.416;2022-09-03T00:23:07;8.10;99.90
20158;DHT22;10239;56.820;24.416;2022-09-03T00:25:43;7.90;99.90
20158;DHT22;10239;56.820;24.416;2022-09-03T00:28:19;7.90;99.90
20158;DHT22;10239;56.820;24.416;2022-09-03T00:31:02;7.90;99.90
20158;DHT22;10239;56.820;24.416;2022-09-03T00:33:33;7.90;99.90
20158;DHT22;10239;56.820;24.416;2022-09-03T00:36:04;8.00;99.90
20158;DHT22;10239;56.820;24.416;2022-09-03T00:38:36;7.90;99.90
20158;DHT22;10239;56.820;24.416;2022-09-03T00:46:43;7.90;99.90
20158;DHT22;10239;56.820;24.416;2022-09-03T01:00:18;7.70;99.90
20158;DHT22;10239;56.820;24.416;2022-09-03T01:13:52;8.00;99.90
20158;DHT22;10239;56.820;24.416;2022-09-03T01:16:48;8.20;99.90
20158;DHT22;10239;56.820;24.416;2022-09-03T01:22:23;8.10;99.90
20158;DHT22;10239;56.820;24.416;2022-09-03T01:25:16;8.00;99.90
20158;DHT22;10239;56.820;24.416;2022-09-03T01:30:40;7.90;99.90
20158;DHT22;10239;56.820;24.416;2022-09-03T01:38:54;8.00;99.90
20158;DHT22;10239;56.820;24.416;2022-09-03T01:48:03;8.20;99.90
20158;DHT22;10239;56.820;24.416;2022-09-03T01:50:48;8.20;99.90
20158;DHT22;10239;56.820;24.416;2022-09-03T01:58:50;8.00;99.90
20158;DHT22;10239;56.820;24.416;2022-09-03T02:01:33;8.00;99.90
20158;DHT22;10239;56.820;24.416;2022-09-03T02:04:11;7.90;99.90
20158;DHT22;10239;56.820;24.416;2022-09-03T02:06:40;7.70;99.90
20158;DHT22;10239;56.820;24.416;2022-09-03T02:09:08;7.70;99.90
20158;DHT22;10239;56.820;24.416;2022-09-03T02:11:36;7.50;99.90
20158;DHT22;10239;56.820;24.416;2022-09-03T02:14:04;7.60;99.90
20158;DHT22;10239;56.820;24.416;2022-09-03T02:16:33;7.60;99.90
20158;DHT22;10239;56.820;24.416;2022-09-03T02:19:05;7.50;99.90
20158;DHT22;10239;56.820;24.416;2022-09-03T02:21:41;7.50;99.90
20158;DHT22;10239;56.820;24.416;2022-09-03T02:24:11;7.40;99.90
20158;DHT22;10239;56.820;24.416;2022-09-03T02:26:40;7.20;99.90
20158;DHT22;10239;56.820;24.416;2022-09-03T02:29:09;7.20;99.90
20158;DHT22;10239;56.820;24.416;2022-09-03T02:31:37;7.30;99.90
20158;DHT22;10239;56.820;24.416;2022-09-03T02:34:05;7.30;99.90
20158;DHT22;10239;56.820;24.416;2022-09-03T02:36:36;7.30;99.90
20158;DHT22;10239;56.820;24.416;2022-09-03T02:39:04;7.30;99.90
20158;DHT22;10239;56.820;24.416;2022-09-03T02:41:33;7.20;99.90
20158;DHT22;10239;56.820;24.416;2022-09-03T02:44:17;7.10;99.90
20158;DHT22;10239;56.820;24.416;2022-09-03T02:46:59;7.00;99.90
20158;DHT22;10239;56.820;24.416;2022-09-03T02:49:28;7.10;99.90
20158;DHT22;10239;56.820;24.416;2022-09-03T02:52:05;7.00;99.90
20158;DHT22;10239;56.820;24.416;2022-09-03T02:54:33;7.00;99.90
20158;DHT22;10239;56.820;24.416;2022-09-03T02:57:11;7.00;99.90
20158;DHT22;10239;56.820;24.416;2022-09-03T02:59:40;7.00;99.90
20158;DHT22;10239;56.820;24.416;2022-09-03T03:02:12;7.10;99.90
20158;DHT22;10239;56.820;24.416;2022-09-03T03:04:40;7.00;99.90
20158;DHT22;10239;56.820;24.416;2022-09-03T03:07:07;6.90;99.90
20158;DHT22;10239;56.820;24.416;2022-09-03T03:09:35;6.90;99.90
20158;DHT22;10239;56.820;24.416;2022-09-03T03:12:03;6.80;99.90
20158;DHT22;10239;56.820;24.416;2022-09-03T03:14:31;6.70;99.90
20158;DHT22;10239;56.820;24.416;2022-09-03T03:16:59;6.70;99.90
20158;DHT22;10239;56.820;24.416;2022-09-03T03:19:27;6.60;99.90
20158;DHT22;10239;56.820;24.416;2022-09-03T03:21:55;6.60;99.90
20158;DHT22;10239;56.820;24.416;2022-09-03T03:24:22;6.60;99.90
20158;DHT22;10239;56.820;24.416;2022-09-03T03:26:50;6.50;99.90
20158;DHT22;10239;56.820;24.416;2022-09-03T03:29:21;6.50;99.90
20158;DHT22;10239;56.820;24.416;2022-09-03T03:31:49;6.40;99.90
20158;DHT22;10239;56.820;24.416;2022-09-03T03:34:16;6.40;99.90
20158;DHT22;10239;56.820;24.416;2022-09-03T03:36:44;6.40;99.90
20158;DHT22;10239;56.820;24.416;2022-09-03T03:39:13;6.50;99.90
20158;DHT22;10239;56.820;24.416;2022-09-03T03:41:41;6.50;99.90
20158;DHT22;10239;56.820;24.416;2022-09-03T03:44:09;6.50;99.90
20158;DHT22;10239;56.820;24.416;2022-09-03T03:46:39;6.50;99.90
20158;DHT22;10239;56.820;24.416;2022-09-03T03:49:07;6.60;99.90
20158;DHT22;10239;56.820;24.416;2022-09-03T03:51:36;6.60;99.90
20158;DHT22;10239;56.820;24.416;2022-09-03T03:54:04;6.70;99.90
20158;DHT22;10239;56.820;24.416;2022-09-03T03:56:33;6.60;99.90
20158;DHT22;10239;56.820;24.416;2022-09-03T03:59:02;6.70;99.90
20158;DHT22;10239;56.820;24.416;2022-09-03T04:01:30;6.80;99.90
20158;DHT22;10239;56.820;24.416;2022-09-03T04:03:58;6.80;99.90
20158;DHT22;10239;56.820;24.416;2022-09-03T04:06:29;6.90;99.90
20158;DHT22;10239;56.820;24.416;2022-09-03T04:08:57;7.00;99.90
20158;DHT22;10239;56.820;24.416;2022-09-03T04:11:25;6.90;99.90
20158;DHT22;10239;56.820;24.416;2022-09-03T04:13:53;7.00;99.90
20158;DHT22;10239;56.820;24.416;2022-09-03T04:16:23;7.10;99.90
20158;DHT22;10239;56.820;24.416;2022-09-03T04:18:52;7.50;99.90
20158;DHT22;10239;56.820;24.416;2022-09-03T04:21:23;7.60;99.90
20158;DHT22;10239;56.820;24.416;2022-09-03T04:23:55;7.80;99.90
20158;DHT22;10239;56.820;24.416;2022-09-03T04:26:26;7.70;99.90
20158;DHT22;10239;56.820;24.416;2022-09-03T04:28:59;8.00;99.90
20158;DHT22;10239;56.820;24.416;2022-09-03T04:31:31;8.30;99.90
20158;DHT22;10239;56.820;24.416;2022-09-03T04:33:59;8.00;99.90
20158;DHT22;10239;56.820;24.416;2022-09-03T04:36:29;8.30;99.90
20158;DHT22;10239;56.820;24.416;2022-09-03T04:38:59;8.60;99.90
20158;DHT22;10239;56.820;24.416;2022-09-03T04:41:29;8.90;99.90
20158;DHT22;10239;56.820;24.416;2022-09-03T04:43:58;9.20;99.90
20158;DHT22;10239;56.820;24.416;2022-09-03T04:46:28;9.50;99.90
20158;DHT22;10239;56.820;24.416;2022-09-03T04:49:02;9.60;99.90
20158;DHT22;10239;56.820;24.416;2022-09-03T04:51:30;9.80;99.90
20158;DHT22;10239;56.820;24.416;2022-09-03T04:54:03;10.00;99.90
20158;DHT22;10239;56.820;24.416;2022-09-03T04:59:43;10.10;99.90
20158;DHT22;10239;56.820;24.416;2022-09-03T05:02:12;10.50;99.90
20158;DHT22;10239;56.820;24.416;2022-09-03T05:04:42;10.70;99.90
20158;DHT22;10239;56.820;24.416;2022-09-03T05:07:11;10.80;99.90
20158;DHT22;10239;56.820;24.416;2022-09-03T05:09:42;10.80;99.90
20158;DHT22;10239;56.820;24.416;2022-09-03T05:12:13;10.90;99.90
20158;DHT22;10239;56.820;24.416;2022-09-03T05:14:47;11.10;99.90
20158;DHT22;10239;56.820;24.416;2022-09-03T05:17:16;11.10;99.90
20158;DHT22;10239;56.820;24.416;2022-09-03T05:19:45;11.50;99.90
20158;DHT22;10239;56.820;24.416;2022-09-03T05:22:13;12.00;99.90
20158;DHT22;10239;56.820;24.416;2022-09-03T05:24:55;12.60;99.90
20158;DHT22;10239;56.820;24.416;2022-09-03T05:27:24;13.00;99.90
20158;DHT22;10239;56.820;24.416;2022-09-03T05:29:54;13.40;99.90
20158;DHT22;10239;56.820;24.416;2022-09-03T05:32:23;13.60;99.90
20158;DHT22;10239;56.820;24.416;2022-09-03T05:34:52;13.70;99.90
20158;DHT22;10239;56.820;24.416;2022-09-03T05:37:23;13.80;99.90
20158;DHT22;10239;56.820;24.416;2022-09-03T05:39:52;13.90;99.90
20158;DHT22;10239;56.820;24.416;2022-09-03T05:42:21;14.20;99.90
20158;DHT22;10239;56.820;24.416;2022-09-03T05:44:52;14.50;99.90
20158;DHT22;10239;56.820;24.416;2022-09-03T05:47:19;14.70;99.90
20158;DHT22;10239;56.820;24.416;2022-09-03T05:49:50;15.40;99.90
20158;DHT22;10239;56.820;24.416;2022-09-03T05:52:19;15.60;99.90
20158;DHT22;10239;56.820;24.416;2022-09-03T05:54:49;15.30;99.90
20158;DHT22;10239;56.820;24.416;2022-09-03T05:57:19;15.20;99.90
20158;DHT22;10239;56.820;24.416;2022-09-03T05:59:48;15.20;99.90
20158;DHT22;10239;56.820;24.416;2022-09-03T06:02:20;15.70;99.90
20158;DHT22;10239;56.820;24.416;2022-09-03T06:04:51;16.50;99.90
20158;DHT22;10239;56.820;24.416;2022-09-03T06:07:25;17.70;99.90
20158;DHT22;10239;56.820;24.416;2022-09-03T06:09:57;18.20;99.90
20158;DHT22;10239;56.820;24.416;2022-09-03T06:12:32;18.50;99.90
20158;DHT22;10239;56.820;24.416;2022-09-03T06:15:04;18.90;99.90
20158;DHT22;10239;56.820;24.416;2022-09-03T06:17:33;19.70;99.90
20158;DHT22;10239;56.820;24.416;2022-09-03T06:20:10;20.20;99.90
20158;DHT22;10239;56.820;24.416;2022-09-03T06:22:48;20.60;99.90
20158;DHT22;10239;56.820;24.416;2022-09-03T06:25:25;22.20;99.90
20158;DHT22;10239;56.820;24.416;2022-09-03T06:28:00;24.00;99.90
20158;DHT22;10239;56.820;24.416;2022-09-03T06:30:29;24.90;99.90
20158;DHT22;10239;56.820;24.416;2022-09-03T06:32:57;25.70;99.90
20158;DHT22;10239;56.820;24.416;2022-09-03T06:35:26;26.20;99.90
20158;DHT22;10239;56.820;24.416;2022-09-03T06:37:57;26.90;99.90
20158;DHT22;10239;56.820;24.416;2022-09-03T06:40:30;27.20;99.90
20158;DHT22;10239;56.820;24.416;2022-09-03T06:42:58;27.80;99.90
20158;DHT22;10239;56.820;24.416;2022-09-03T06:45:29;28.60;99.90
20158;DHT22;10239;56.820;24.416;2022-09-03T06:47:59;28.30;99.90
20158;DHT22;10239;56.820;24.416;2022-09-03T06:50:31;28.10;99.90
20158;DHT22;10239;56.820;24.416;2022-09-03T06:53:00;28.50;99.90
20158;DHT22;10239;56.820;24.416;2022-09-03T06:55:28;28.80;99.90
20158;DHT22;10239;56.820;24.416;2022-09-03T06:57:57;28.70;99.90
20158;DHT22;10239;56.820;24.416;2022-09-03T07:00:25;29.20;99.90
20158;DHT22;10239;56.820;24.416;2022-09-03T07:02:58;30.10;99.40
20158;DHT22;10239;56.820;24.416;2022-09-03T07:05:28;30.50;97.70
20158;DHT22;10239;56.820;24.416;2022-09-03T07:07:57;30.50;97.70
20158;DHT22;10239;56.820;24.416;2022-09-03T07:10:25;31.10;96.30
20158;DHT22;10239;56.820;24.416;2022-09-03T07:12:56;31.00;97.50
20158;DHT22;10239;56.820;24.416;2022-09-03T07:15:26;31.90;97.00
20158;DHT22;10239;56.820;24.416;2022-09-03T07:17:55;32.20;93.20
20158;DHT22;10239;56.820;24.416;2022-09-03T07:20:25;32.20;92.10
20158;DHT22;10239;56.820;24.416;2022-09-03T07:22:54;31.80;91.70
20158;DHT22;10239;56.820;24.416;2022-09-03T07:25:24;32.40;91.80
20158;DHT22;10239;56.820;24.416;2022-09-03T07:27:53;32.20;92.70
20158;DHT22;10239;56.820;24.416;2022-09-03T07:30:21;32.80;90.50
20158;DHT22;10239;56.820;24.416;2022-09-03T07:32:49;33.20;90.10
20158;DHT22;10239;56.820;24.416;2022-09-03T07:35:19;33.10;88.10
20158;DHT22;10239;56.820;24.416;2022-09-03T07:37:48;32.60;83.30
20158;DHT22;10239;56.820;24.416;2022-09-03T07:40:16;32.20;84.10
20158;DHT22;10239;56.820;24.416;2022-09-03T07:42:46;31.80;85.10
20158;DHT22;10239;56.820;24.416;2022-09-03T07:45:21;31.20;86.50
20158;DHT22;10239;56.820;24.416;2022-09-03T07:47:50;29.70;87.60
20158;DHT22;10239;56.820;24.416;2022-09-03T07:50:18;28.00;88.50
20158;DHT22;10239;56.820;24.416;2022-09-03T07:52:46;26.40;91.00
20158;DHT22;10239;56.820;24.416;2022-09-03T07:55:14;25.70;92.50
20158;DHT22;10239;56.820;24.416;2022-09-03T07:57:42;25.80;92.30
20158;DHT22;10239;56.820;24.416;2022-09-03T08:00:11;25.40;92.70
20158;DHT22;10239;56.820;24.416;2022-09-03T08:02:39;25.30;93.10
20158;DHT22;10239;56.820;24.416;2022-09-03T08:05:12;26.60;91.10
20158;DHT22;10239;56.820;24.416;2022-09-03T08:07:40;28.10;87.20
20158;DHT22;10239;56.820;24.416;2022-09-03T08:10:09;29.20;86.20
20158;DHT22;10239;56.820;24.416;2022-09-03T08:12:37;30.10;83.20
20158;DHT22;10239;56.820;24.416;2022-09-03T08:15:05;30.40;85.50
20158;DHT22;10239;56.820;24.416;2022-09-03T08:17:35;30.90;85.00
20158;DHT22;10239;56.820;24.416;2022-09-03T08:20:03;31.40;76.40
20158;DHT22;10239;56.820;24.416;2022-09-03T08:22:31;31.60;78.70
20158;DHT22;10239;56.820;24.416;2022-09-03T08:25:00;31.90;77.80
20158;DHT22;10239;56.820;24.416;2022-09-03T08:27:30;31.90;75.70
20158;DHT22;10239;56.820;24.416;2022-09-03T08:30:02;32.00;77.40
20158;DHT22;10239;56.820;24.416;2022-09-03T08:32:33;32.60;80.70
20158;DHT22;10239;56.820;24.416;2022-09-03T08:35:02;32.60;82.50
20158;DHT22;10239;56.820;24.416;2022-09-03T08:37:31;32.50;83.40
20158;DHT22;10239;56.820;24.416;2022-09-03T08:40:11;32.60;81.30
20158;DHT22;10239;56.820;24.416;2022-09-03T08:45:35;29.30;84.90
20158;DHT22;10239;56.820;24.416;2022-09-03T08:48:18;27.60;84.70
20158;DHT22;10239;56.820;24.416;2022-09-03T08:50:54;26.30;87.60
20158;DHT22;10239;56.820;24.416;2022-09-03T08:53:45;25.20;89.30
20158;DHT22;10239;56.820;24.416;2022-09-03T08:56:23;24.60;90.70
20158;DHT22;10239;56.820;24.416;2022-09-03T08:58:52;24.10;91.70
20158;DHT22;10239;56.820;24.416;2022-09-03T09:07:13;26.80;85.80
20158;DHT22;10239;56.820;24.416;2022-09-03T09:12:28;29.30;85.80
20158;DHT22;10239;56.820;24.416;2022-09-03T09:23:28;29.00;83.10
20158;DHT22;10239;56.820;24.416;2022-09-03T09:25:58;27.70;84.50
20158;DHT22;10239;56.820;24.416;2022-09-03T09:28:34;26.70;85.20
20158;DHT22;10239;56.820;24.416;2022-09-03T09:31:05;25.70;86.90
20158;DHT22;10239;56.820;24.416;2022-09-03T09:33:36;24.90;87.80
20158;DHT22;10239;56.820;24.416;2022-09-03T09:36:08;24.20;90.20
20158;DHT22;10239;56.820;24.416;2022-09-03T09:38:38;23.70;90.70
20158;DHT22;10239;56.820;24.416;2022-09-03T09:41:11;23.30;91.30
20158;DHT22;10239;56.820;24.416;2022-09-03T09:43:40;22.90;91.30
20158;DHT22;10239;56.820;24.416;2022-09-03T09:46:20;22.70;93.10
20158;DHT22;10239;56.820;24.416;2022-09-03T09:48:52;22.60;92.20
20158;DHT22;10239;56.820;24.416;2022-09-03T09:51:25;22.40;92.00
20158;DHT22;10239;56.820;24.416;2022-09-03T09:54:14;22.60;91.70
20158;DHT22;10239;56.820;24.416;2022-09-03T09:56:58;23.10;93.50
20158;DHT22;10239;56.820;24.416;2022-09-03T09:59:27;23.80;93.30
20158;DHT22;10239;56.820;24.416;2022-09-03T10:02:26;23.90;91.90
20158;DHT22;10239;56.820;24.416;2022-09-03T10:05:11;23.10;92.10
20158;DHT22;10239;56.820;24.416;2022-09-03T10:07:41;22.10;94.20
20158;DHT22;10239;56.820;24.416;2022-09-03T10:10:20;21.60;94.70
20158;DHT22;10239;56.820;24.416;2022-09-03T10:12:50;21.30;95.50
20158;DHT22;10239;56.820;24.416;2022-09-03T10:15:44;21.30;96.60
20158;DHT22;10239;56.820;24.416;2022-09-03T10:21:07;22.40;95.70
20158;DHT22;10239;56.820;24.416;2022-09-03T10:26:19;23.90;95.80
20158;DHT22;10239;56.820;24.416;2022-09-03T10:28:50;24.30;92.40
20158;DHT22;10239;56.820;24.416;2022-09-03T10:32:01;23.70;93.60
20158;DHT22;10239;56.820;24.416;2022-09-03T10:37:11;23.10;93.60
20158;DHT22;10239;56.820;24.416;2022-09-03T10:56:30;19.00;99.90
20158;DHT22;10239;56.820;24.416;2022-09-03T10:59:24;18.50;99.90
20158;DHT22;10239;56.820;24.416;2022-09-03T11:05:11;18.00;99.90
20158;DHT22;10239;56.820;24.416;2022-09-03T11:07:49;17.90;99.90
20158;DHT22;10239;56.820;24.416;2022-09-03T11:10:33;17.70;99.90
20158;DHT22;10239;56.820;24.416;2022-09-03T11:13:08;17.50;99.90
20158;DHT22;10239;56.820;24.416;2022-09-03T11:18:32;17.30;99.90
20158;DHT22;10239;56.820;24.416;2022-09-03T11:21:04;17.50;99.90
20158;DHT22;10239;56.820;24.416;2022-09-03T11:23:45;17.60;99.90
20158;DHT22;10239;56.820;24.416;2022-09-03T11:26:23;17.70;99.90
20158;DHT22;10239;56.820;24.416;2022-09-03T11:29:09;17.80;99.90
20158;DHT22;10239;56.820;24.416;2022-09-03T11:31:56;18.00;99.90
20158;DHT22;10239;56.820;24.416;2022-09-03T11:34:31;18.20;99.90
20158;DHT22;10239;56.820;24.416;2022-09-03T11:40:05;18.00;99.90
20158;DHT22;10239;56.820;24.416;2022-09-03T11:42:41;17.80;99.90
20158;DHT22;10239;56.820;24.416;2022-09-03T11:45:34;17.70;99.90
20158;DHT22;10239;56.820;24.416;2022-09-03T11:48:17;17.60;99.90
20158;DHT22;10239;56.820;24.416;2022-09-03T11:50:53;17.60;99.90
20158;DHT22;10239;56.820;24.416;2022-09-03T11:53:25;17.70;99.90
20158;DHT22;10239;56.820;24.416;2022-09-03T11:58:33;18.10;99.90
20158;DHT22;10239;56.820;24.416;2022-09-03T12:01:04;18.20;99.90
20158;DHT22;10239;56.820;24.416;2022-09-03T12:03:48;18.50;99.90
20158;DHT22;10239;56.820;24.416;2022-09-03T12:15:36;18.40;99.90
20158;DHT22;10239;56.820;24.416;2022-09-03T12:18:11;18.20;99.90
20158;DHT22;10239;56.820;24.416;2022-09-03T12:23:46;18.20;99.90
20158;DHT22;10239;56.820;24.416;2022-09-03T12:26:16;18.40;99.90
20158;DHT22;10239;56.820;24.416;2022-09-03T12:28:48;18.60;99.90
20158;DHT22;10239;56.820;24.416;2022-09-03T12:31:20;19.10;99.90
20158;DHT22;10239;56.820;24.416;2022-09-03T12:33:58;19.70;99.90
20158;DHT22;10239;56.820;24.416;2022-09-03T12:36:44;19.80;99.90
20158;DHT22;10239;56.820;24.416;2022-09-03T12:39:17;19.90;99.90
20158;DHT22;10239;56.820;24.416;2022-09-03T12:42:04;20.00;99.90
20158;DHT22;10239;56.820;24.416;2022-09-03T12:47:13;20.00;99.90
20158;DHT22;10239;56.820;24.416;2022-09-03T12:50:10;19.80;99.90
20158;DHT22;10239;56.820;24.416;2022-09-03T13:01:07;19.70;99.90
20158;DHT22;10239;56.820;24.416;2022-09-03T13:03:43;19.70;99.90
20158;DHT22;10239;56.820;24.416;2022-09-03T13:06:19;19.90;99.90
20158;DHT22;10239;56.820;24.416;2022-09-03T13:08:50;19.90;99.90
20158;DHT22;10239;56.820;24.416;2022-09-03T13:11:22;19.90;99.90
20158;DHT22;10239;56.820;24.416;2022-09-03T13:14:06;19.70;99.90
20158;DHT22;10239;56.820;24.416;2022-09-03T13:19:38;19.80;99.90
20158;DHT22;10239;56.820;24.416;2022-09-03T13:22:25;19.80;99.90
20158;DHT22;10239;56.820;24.416;2022-09-03T13:30:27;20.10;99.90
20158;DHT22;10239;56.820;24.416;2022-09-03T13:33:04;20.30;99.90
20158;DHT22;10239;56.820;24.416;2022-09-03T13:35:37;20.10;99.90
20158;DHT22;10239;56.820;24.416;2022-09-03T13:40:43;20.30;99.90
20158;DHT22;10239;56.820;24.416;2022-09-03T13:49:34;20.40;99.90
20158;DHT22;10239;56.820;24.416;2022-09-03T13:55:28;19.60;99.90
20158;DHT22;10239;56.820;24.416;2022-09-03T14:00:53;19.10;99.90
20158;DHT22;10239;56.820;24.416;2022-09-03T14:03:47;19.00;99.90
20158;DHT22;10239;56.820;24.416;2022-09-03T14:06:25;18.80;99.90
20158;DHT22;10239;56.820;24.416;2022-09-03T14:12:24;18.70;99.90
20158;DHT22;10239;56.820;24.416;2022-09-03T14:20:45;19.10;99.90
20158;DHT22;10239;56.820;24.416;2022-09-03T14:26:36;19.50;99.90
20158;DHT22;10239;56.820;24.416;2022-09-03T14:29:16;19.70;99.90
20158;DHT22;10239;56.820;24.416;2022-09-03T14:58:42;18.90;99.90
20158;DHT22;10239;56.820;24.416;2022-09-03T15:03:56;18.50;99.90
20158;DHT22;10239;56.820;24.416;2022-09-03T15:07:05;18.50;99.90
20158;DHT22;10239;56.820;24.416;2022-09-03T15:09:57;18.40;99.90
20158;DHT22;10239;56.820;24.416;2022-09-03T15:12:42;18.20;99.90
20158;DHT22;10239;56.820;24.416;2022-09-03T15:15:23;18.20;99.90
20158;DHT22;10239;56.820;24.416;2022-09-03T15:18:29;18.10;99.90
20158;DHT22;10239;56.820;24.416;2022-09-03T15:26:41;17.70;99.90
20158;DHT22;10239;56.820;24.416;2022-09-03T15:29:25;17.50;99.90
20158;DHT22;10239;56.820;24.416;2022-09-03T15:38:00;17.20;99.90
20158;DHT22;10239;56.820;24.416;2022-09-03T15:45:50;16.70;99.90
20158;DHT22;10239;56.820;24.416;2022-09-03T15:48:48;16.60;99.90
20158;DHT22;10239;56.820;24.416;2022-09-03T15:51:29;16.50;99.90
20158;DHT22;10239;56.820;24.416;2022-09-03T15:54:14;16.50;99.90
20158;DHT22;10239;56.820;24.416;2022-09-03T15:56:54;16.40;99.90
20158;DHT22;10239;56.820;24.416;2022-09-03T16:02:20;16.30;99.90
20158;DHT22;10239;56.820;24.416;2022-09-03T16:10:56;16.40;99.90
20158;DHT22;10239;56.820;24.416;2022-09-03T16:16:41;16.30;99.90
20158;DHT22;10239;56.820;24.416;2022-09-03T16:19:47;16.20;99.90
20158;DHT22;10239;56.820;24.416;2022-09-03T16:22:30;16.10;99.90
20158;DHT22;10239;56.820;24.416;2022-09-03T16:25:06;16.10;99.90
20158;DHT22;10239;56.820;24.416;2022-09-03T16:30:27;16.10;99.90
20158;DHT22;10239;56.820;24.416;2022-09-03T16:33:39;16.10;99.90
20158;DHT22;10239;56.820;24.416;2022-09-03T16:44:59;15.80;99.90
20158;DHT22;10239;56.820;24.416;2022-09-03T16:50:36;15.60;99.90
20158;DHT22;10239;56.820;24.416;2022-09-03T16:53:27;15.60;99.90
20158;DHT22;10239;56.820;24.416;2022-09-03T16:56:25;15.60;99.90
20158;DHT22;10239;56.820;24.416;2022-09-03T16:59:25;15.50;99.90
20158;DHT22;10239;56.820;24.416;2022-09-03T17:05:12;15.50;99.90
20158;DHT22;10239;56.820;24.416;2022-09-03T17:13:49;15.30;99.90
20158;DHT22;10239;56.820;24.416;2022-09-03T17:25:46;15.30;99.90
20158;DHT22;10239;56.820;24.416;2022-09-03T17:37:30;15.00;99.90
20158;DHT22;10239;56.820;24.416;2022-09-03T17:45:53;14.90;99.90
20158;DHT22;10239;56.820;24.416;2022-09-03T17:51:39;14.70;99.90
20158;DHT22;10239;56.820;24.416;2022-09-03T17:57:40;14.50;99.90
20158;DHT22;10239;56.820;24.416;2022-09-03T18:00:20;14.40;99.90
20158;DHT22;10239;56.820;24.416;2022-09-03T18:03:15;14.40;99.90
20158;DHT22;10239;56.820;24.416;2022-09-03T18:05:53;14.40;99.90
20158;DHT22;10239;56.820;24.416;2022-09-03T18:08:51;14.30;99.90
20158;DHT22;10239;56.820;24.416;2022-09-03T18:14:25;14.10;99.90
20158;DHT22;10239;56.820;24.416;2022-09-03T18:17:32;14.10;99.90
20158;DHT22;10239;56.820;24.416;2022-09-03T18:20:08;14.00;99.90
20158;DHT22;10239;56.820;24.416;2022-09-03T18:23:17;14.00;99.90
20158;DHT22;10239;56.820;24.416;2022-09-03T18:26:21;14.00;99.90
20158;DHT22;10239;56.820;24.416;2022-09-03T18:29:15;13.90;99.90
20158;DHT22;10239;56.820;24.416;2022-09-03T18:32:07;13.90;99.90
20158;DHT22;10239;56.820;24.416;2022-09-03T18:34:55;13.90;99.90
20158;DHT22;10239;56.820;24.416;2022-09-03T18:37:42;13.90;99.90
20158;DHT22;10239;56.820;24.416;2022-09-03T18:41:04;13.80;99.90
20158;DHT22;10239;56.820;24.416;2022-09-03T18:51:04;13.80;99.90
20158;DHT22;10239;56.820;24.416;2022-09-03T18:57:30;13.90;99.90
20158;DHT22;10239;56.820;24.416;2022-09-03T19:00:21;13.90;99.90
20158;DHT22;10239;56.820;24.416;2022-09-03T19:03:14;14.00;99.90
20158;DHT22;10239;56.820;24.416;2022-09-03T19:15:50;13.90;99.90
20158;DHT22;10239;56.820;24.416;2022-09-03T19:21:51;13.90;99.90
20158;DHT22;10239;56.820;24.416;2022-09-03T19:24:43;13.80;99.90
20158;DHT22;10239;56.820;24.416;2022-09-03T19:47:07;12.90;99.90
20158;DHT22;10239;56.820;24.416;2022-09-03T19:52:56;12.60;99.90
20158;DHT22;10239;56.820;24.416;2022-09-03T19:55:57;12.40;99.90
20158;DHT22;10239;56.820;24.416;2022-09-03T19:59:01;12.40;99.90
20158;DHT22;10239;56.820;24.416;2022-09-03T20:01:49;12.10;99.90
20158;DHT22;10239;56.820;24.416;2022-09-03T20:04:45;11.90;99.90
20158;DHT22;10239;56.820;24.416;2022-09-03T20:07:35;11.80;99.90
20158;DHT22;10239;56.820;24.416;2022-09-03T20:10:27;11.80;99.90
20158;DHT22;10239;56.820;24.416;2022-09-03T20:15:44;11.70;99.90
20158;DHT22;10239;56.820;24.416;2022-09-03T20:18:48;11.50;99.90
20158;DHT22;10239;56.820;24.416;2022-09-03T20:27:21;11.10;99.90
20158;DHT22;10239;56.820;24.416;2022-09-03T20:30:17;11.00;99.90
20158;DHT22;10239;56.820;24.416;2022-09-03T20:45:16;10.70;99.90
20158;DHT22;10239;56.820;24.416;2022-09-03T20:48:16;10.70;99.90
20158;DHT22;10239;56.820;24.416;2022-09-03T20:51:13;10.40;99.90
20158;DHT22;10239;56.820;24.416;2022-09-03T20:54:12;10.40;99.90
20158;DHT22;10239;56.820;24.416;2022-09-03T21:00:12;10.20;99.90
20158;DHT22;10239;56.820;24.416;2022-09-03T21:03:28;10.40;99.90
20158;DHT22;10239;56.820;24.416;2022-09-03T21:09:18;10.10;99.90
20158;DHT22;10239;56.820;24.416;2022-09-03T21:15:02;10.00;99.90
20158;DHT22;10239;56.820;24.416;2022-09-03T21:18:15;9.80;99.90
20158;DHT22;10239;56.820;24.416;2022-09-03T21:26:35;9.60;99.90
20158;DHT22;10239;56.820;24.416;2022-09-03T21:29:25;9.70;99.90
20158;DHT22;10239;56.820;24.416;2022-09-03T21:32:10;9.80;99.90
20158;DHT22;10239;56.820;24.416;2022-09-03T21:37:25;9.70;99.90
20158;DHT22;10239;56.820;24.416;2022-09-03T21:39:55;9.60;99.90
20158;DHT22;10239;56.820;24.416;2022-09-03T21:42:48;9.50;99.90
20158;DHT22;10239;56.820;24.416;2022-09-03T21:50:57;9.30;99.90
20158;DHT22;10239;56.820;24.416;2022-09-03T21:53:31;9.20;99.90
20158;DHT22;10239;56.820;24.416;2022-09-03T21:59:10;9.30;99.90
20158;DHT22;10239;56.820;24.416;2022-09-03T22:04:30;9.10;99.90
20158;DHT22;10239;56.820;24.416;2022-09-03T22:07:11;9.10;99.90
20158;DHT22;10239;56.820;24.416;2022-09-03T22:10:02;9.10;99.90
20158;DHT22;10239;56.820;24.416;2022-09-03T22:15:13;8.90;99.90
20158;DHT22;10239;56.820;24.416;2022-09-03T22:17:57;8.70;99.90
20158;DHT22;10239;56.820;24.416;2022-09-03T22:20:33;8.90;99.90
20158;DHT22;10239;56.820;24.416;2022-09-03T22:23:16;8.80;99.90
20158;DHT22;10239;56.820;24.416;2022-09-03T22:26:12;8.80;99.90
20158;DHT22;10239;56.820;24.416;2022-09-03T22:29:07;8.60;99.90
20158;DHT22;10239;56.820;24.416;2022-09-03T22:38:00;8.50;99.90
20158;DHT22;10239;56.820;24.416;2022-09-03T22:49:53;8.50;99.90
20158;DHT22;10239;56.820;24.416;2022-09-03T22:52:34;8.50;99.90
20158;DHT22;10239;56.820;24.416;2022-09-03T22:55:16;8.40;99.90
20158;DHT22;10239;56.820;24.416;2022-09-03T22:58:15;8.40;99.90
20158;DHT22;10239;56.820;24.416;2022-09-03T23:00:53;8.40;99.90
20158;DHT22;10239;56.820;24.416;2022-09-03T23:03:44;8.30;99.90